Pan Freesia — V7SB5 — position and weather

sailwx.info

Track history (hours):
 
Tides and Currents Weather Stations Pressure Air Temp Water Temp Dewpoint Dewpoint Depression Visibility Wind Speed Wind Dir Waves Ship Positions

Pan Freesia

Last reported at 2016-Nov-23 11:24 UTC. Time now 2016-Dec-04 08:13 UTC.
Position N 48°31' W 126°23'.
Warning: this ship's position is 10 days out of date.

Length 292 m; draft 8.7 m.

Type: Cargo ship. MMSI: 538003616.

Date/timePositionNaut miles runAvg speedWind from/ knotsBaromVisibWave heightAir tempDewpointWater temp
2016-Nov-23 11:24N 48°31' W 126°23'8 9.0
2016-Nov-23 10:33N 48°31' W 126°11'9 9.5
2016-Nov-23 09:33N 48°31' W 125°57'10 9.8
2016-Nov-23 08:33N 48°31' W 125°42'10 9.8
2016-Nov-23 07:33N 48°30' W 125°27'10 9.6
2016-Nov-23 06:33N 48°31' W 125°13'29 9.7
2016-Nov-23 03:33N 48°27' W 124°30'1111.2
2016-Nov-23 02:33N 48°22' W 124°14'2311.6
2016-Nov-23 00:33N 48°16' W 123°40'1010.5
2016-Nov-22 23:34N 48°21' W 123°26'1110.8
2016-Nov-22 22:34N 48°26' W 123°12'20 9.9
2016-Nov-22 20:33N 48°45' W 123°05'8 8.5
2016-Nov-22 19:33N 48°54' W 123°06'7 3.6
2016-Nov-22 17:31N 49°01' W 123°09'0 0.0
2016-Nov-22 16:28N 49°01' W 123°09'0 0.0
2016-Nov-22 15:28N 49°01' W 123°09'0 0.0
2016-Nov-22 14:28N 49°01' W 123°09'0 0.0
2016-Nov-22 13:31N 49°01' W 123°09'0 0.0
2016-Nov-22 10:33N 49°01' W 123°09'0 0.0
2016-Nov-22 09:33N 49°01' W 123°09'0 0.0
2016-Nov-22 08:30N 49°01' W 123°09'0 0.0
2016-Nov-22 07:30N 49°01' W 123°09'0 0.0
2016-Nov-22 05:33N 49°01' W 123°09'0 0.0
2016-Nov-22 04:33N 49°01' W 123°09'0 0.0
2016-Nov-22 03:30N 49°01' W 123°09'0 0.0
2016-Nov-22 02:33N 49°01' W 123°09'0 0.0
2016-Nov-21 23:33N 49°01' W 123°09'0 0.0
2016-Nov-21 21:33N 49°01' W 123°09'0 0.0
2016-Nov-21 17:33N 49°01' W 123°09'0 0.0
2016-Nov-21 14:30N 49°01' W 123°09'0 0.0
2016-Nov-21 13:27N 49°01' W 123°09'0 0.0
2016-Nov-21 12:33N 49°01' W 123°09'0 0.0
2016-Nov-21 11:33N 49°01' W 123°09'0 0.0
2016-Nov-21 10:33N 49°01' W 123°09'0 0.0
2016-Nov-21 08:33N 49°01' W 123°09'0 0.0
2016-Nov-21 07:33N 49°01' W 123°09'0 0.0
2016-Nov-21 05:33N 49°01' W 123°09'0 0.0
2016-Nov-21 04:18N 49°01' W 123°09'0 0.0
2016-Nov-21 02:24N 49°01' W 123°09'0 0.0
2016-Nov-21 00:30N 49°01' W 123°09'0 0.0
2016-Nov-20 22:15N 49°01' W 123°09'0 0.0
2016-Nov-20 17:30N 49°01' W 123°09'0 0.0
2016-Nov-20 16:26N 49°01' W 123°09'0 0.0
2016-Nov-20 14:32N 49°01' W 123°09'0 0.0
2016-Nov-20 13:32N 49°01' W 123°09'0 0.0
2016-Nov-20 12:32N 49°01' W 123°09'0 0.0
2016-Nov-20 09:32N 49°01' W 123°09'0 0.0
2016-Nov-20 08:26N 49°01' W 123°09'0 0.0
2016-Nov-20 07:32N 49°01' W 123°09'0 0.0
2016-Nov-20 06:29N 49°01' W 123°09'0 0.0
2016-Nov-20 05:32N 49°01' W 123°09'0 0.0
2016-Nov-20 04:32N 49°01' W 123°09'0 0.0
2016-Nov-20 03:32N 49°01' W 123°09'0 0.0
2016-Nov-20 01:26N 49°01' W 123°09'0 0.0
2016-Nov-19 23:32N 49°01' W 123°09'0 0.0
2016-Nov-19 22:32N 49°01' W 123°09'0 0.0
2016-Nov-19 20:32N 49°01' W 123°09'0 0.0
2016-Nov-19 19:32N 49°01' W 123°09'0 0.0
2016-Nov-19 17:32N 49°01' W 123°09'0 0.0
2016-Nov-19 16:29N 49°01' W 123°09'0 0.0
2016-Nov-19 14:32N 49°01' W 123°09'0 0.0
2016-Nov-19 11:29N 49°01' W 123°09'0 0.0
2016-Nov-19 09:29N 49°01' W 123°09'1 0.5
2016-Nov-19 07:33N 49°00' W 123°09'1 0.6
2016-Nov-19 05:34N 48°59' W 123°09'5 4.6
2016-Nov-19 04:33N 48°55' W 123°04'7 6.6
2016-Nov-19 03:34N 48°49' W 122°60'1211.6
2016-Nov-19 02:33N 48°44' W 123°15'  
Track history (hours):
 
Tides and Currents Weather Stations Pressure Air Temp Water Temp Dewpoint Dewpoint Depression Visibility Wind Speed Wind Dir Waves Ship Positions

Pan Freesia

Last reported at 2016-Nov-23 11:24 UTC. Time now 2016-Dec-04 08:13 UTC.
Position N 48°31' W 126°23'.
Warning: this ship's position is 10 days out of date.

Length 292 m; draft 8.7 m.

Type: Cargo ship. MMSI: 538003616.

Date/timePositionNaut miles runAvg speedWind from/ knotsBaromVisibWave heightAir tempDewpointWater temp
2016-Nov-23 11:24N 48°31' W 126°23'8 9.0
2016-Nov-23 10:33N 48°31' W 126°11'9 9.5
2016-Nov-23 09:33N 48°31' W 125°57'10 9.8
2016-Nov-23 08:33N 48°31' W 125°42'10 9.8
2016-Nov-23 07:33N 48°30' W 125°27'10 9.6
2016-Nov-23 06:33N 48°31' W 125°13'29 9.7
2016-Nov-23 03:33N 48°27' W 124°30'1111.2
2016-Nov-23 02:33N 48°22' W 124°14'2311.6
2016-Nov-23 00:33N 48°16' W 123°40'1010.5
2016-Nov-22 23:34N 48°21' W 123°26'1110.8
2016-Nov-22 22:34N 48°26' W 123°12'20 9.9
2016-Nov-22 20:33N 48°45' W 123°05'8 8.5
2016-Nov-22 19:33N 48°54' W 123°06'7 3.6
2016-Nov-22 17:31N 49°01' W 123°09'0 0.0
2016-Nov-22 16:28N 49°01' W 123°09'0 0.0
2016-Nov-22 15:28N 49°01' W 123°09'0 0.0
2016-Nov-22 14:28N 49°01' W 123°09'0 0.0
2016-Nov-22 13:31N 49°01' W 123°09'0 0.0
2016-Nov-22 10:33N 49°01' W 123°09'0 0.0
2016-Nov-22 09:33N 49°01' W 123°09'0 0.0
2016-Nov-22 08:30N 49°01' W 123°09'0 0.0
2016-Nov-22 07:30N 49°01' W 123°09'0 0.0
2016-Nov-22 05:33N 49°01' W 123°09'0 0.0
2016-Nov-22 04:33N 49°01' W 123°09'0 0.0
2016-Nov-22 03:30N 49°01' W 123°09'0 0.0
2016-Nov-22 02:33N 49°01' W 123°09'0 0.0
2016-Nov-21 23:33N 49°01' W 123°09'0 0.0
2016-Nov-21 21:33N 49°01' W 123°09'0 0.0
2016-Nov-21 17:33N 49°01' W 123°09'0 0.0
2016-Nov-21 14:30N 49°01' W 123°09'0 0.0
2016-Nov-21 13:27N 49°01' W 123°09'0 0.0
2016-Nov-21 12:33N 49°01' W 123°09'0 0.0
2016-Nov-21 11:33N 49°01' W 123°09'0 0.0
2016-Nov-21 10:33N 49°01' W 123°09'0 0.0
2016-Nov-21 08:33N 49°01' W 123°09'0 0.0
2016-Nov-21 07:33N 49°01' W 123°09'0 0.0
2016-Nov-21 05:33N 49°01' W 123°09'0 0.0
2016-Nov-21 04:18N 49°01' W 123°09'0 0.0
2016-Nov-21 02:24N 49°01' W 123°09'0 0.0
2016-Nov-21 00:30N 49°01' W 123°09'0 0.0
2016-Nov-20 22:15N 49°01' W 123°09'0 0.0
2016-Nov-20 17:30N 49°01' W 123°09'0 0.0
2016-Nov-20 16:26N 49°01' W 123°09'0 0.0
2016-Nov-20 14:32N 49°01' W 123°09'0 0.0
2016-Nov-20 13:32N 49°01' W 123°09'0 0.0
2016-Nov-20 12:32N 49°01' W 123°09'0 0.0
2016-Nov-20 09:32N 49°01' W 123°09'0 0.0
2016-Nov-20 08:26N 49°01' W 123°09'0 0.0
2016-Nov-20 07:32N 49°01' W 123°09'0 0.0
2016-Nov-20 06:29N 49°01' W 123°09'0 0.0
2016-Nov-20 05:32N 49°01' W 123°09'0 0.0
2016-Nov-20 04:32N 49°01' W 123°09'0 0.0
2016-Nov-20 03:32N 49°01' W 123°09'0 0.0
2016-Nov-20 01:26N 49°01' W 123°09'0 0.0
2016-Nov-19 23:32N 49°01' W 123°09'0 0.0
2016-Nov-19 22:32N 49°01' W 123°09'0 0.0
2016-Nov-19 20:32N 49°01' W 123°09'0 0.0
2016-Nov-19 19:32N 49°01' W 123°09'0 0.0
2016-Nov-19 17:32N 49°01' W 123°09'0 0.0
2016-Nov-19 16:29N 49°01' W 123°09'0 0.0
2016-Nov-19 14:32N 49°01' W 123°09'0 0.0
2016-Nov-19 11:29N 49°01' W 123°09'0 0.0
2016-Nov-19 09:29N 49°01' W 123°09'1 0.5
2016-Nov-19 07:33N 49°00' W 123°09'1 0.6
2016-Nov-19 05:34N 48°59' W 123°09'5 4.6
2016-Nov-19 04:33N 48°55' W 123°04'7 6.6
2016-Nov-19 03:34N 48°49' W 122°60'1211.6
2016-Nov-19 02:33N 48°44' W 123°15'  

Dump ship's entire track history